• Join FlightAware (Why Join?)
  • Login
  • US Flag 
05:32PM EDT


 

Airport Tracker/Info


-or-


 

Live Flight TrackerFlight Track Log ✈ N137TK ✈ 22-Jan-2014 ✈ KAPF - KHQZ

Flight Track Log - Related Links

Times and Time Zones

All times are in EST time to prevent confusion due to time zone crossing. See the N137TK flight status page for this flight to view local times or setup timezone preferences in your user account.

Time Position Orientation Groundspeed Altitude Reporting Facility
EST Latitude Longitude Course Direction KTS MPH feet Rate Location/Type
08:00AM 26.1439 -81.8944 261° West 146 168 5,400  Level Miami Center
08:01AM 26.1322 -81.9358 253° West 146 168 7,200 1,740 Climbing Miami Center
08:02AM 26.1200 -81.9814 253° West 151 174 8,900 1,680 Climbing Miami Center
08:03AM 26.1103 -82.0272 257° West 151 174 10,600 1,800 Climbing Miami Center
08:04AM 26.3415 -82.1322 303° West  Level Estimated
08:04AM 26.1231 -82.0764 286° West 146 168 12,500  Level Miami Center
08:05AM 26.3315 -82.2003 261° West  Level FlightAware Approximate
08:05AM 26.1444 -82.1167 301° West 152 175 14,000  Level Miami Center
08:06AM 26.1658 -82.1617 298° West 162 186 15,300 1,380 Climbing Miami Center
08:07AM 26.1872 -82.2064 298° West 162 186 16,800 1,260 Climbing Miami Center
08:08AM 26.2106 -82.2492 301° West 162 186 17,900 1,080 Climbing Miami Center
08:09AM 26.2300 -82.2917 297° West 167 192 19,000 1,140 Climbing Miami Center
08:10AM 26.2514 -82.3319 301° West 167 192 20,200 960 Climbing Miami Center
08:11AM 26.2767 -82.3819 299° West 167 192 21,000 840 Climbing Miami Center
08:12AM 26.3022 -82.4269 302° West 172 198 21,900 900 Climbing Miami Center
08:13AM 26.3272 -82.4769 299° West 172 198 22,800 900 Climbing Miami Center
08:14AM 26.3528 -82.5219 302° West 172 198 23,700 600 Climbing Miami Center
08:15AM 26.3778 -82.5742 298° West 183 211 24,000 120 Climbing Miami Center
08:16AM 26.4069 -82.6311 300° West 195 224 24,000  Level Miami Center
08:17AM 26.4400 -82.6931 301° West 216 249 24,000  Level Miami Center
08:18AM 26.4728 -82.7550 301° West 228 262 24,000  Level Miami Center
08:19AM 26.5036 -82.8192 298° West 234 269 24,000  Level Miami Center
08:20AM 26.5364 -82.8836 300° West 236 272 24,000  Level Miami Center
08:21AM 26.5694 -82.9456 301° West 236 272 24,000  Level Miami Center
08:22AM 26.6022 -83.0100 300° West 236 272 24,000  Level Miami Center
08:23AM 26.6350 -83.0719 301° West 231 266 24,000  Level Miami Center
08:24AM 26.6678 -83.1364 300° West 231 266 24,000  Level Miami Center
08:25AM 26.7003 -83.2008 299° West 231 266 24,000  Level Miami Center
08:26AM 26.7331 -83.2608 301° West 231 266 24,000  Level Miami Center
08:27AM 26.7678 -83.3253 301° West 237 273 24,000  Level Miami Center
08:28AM 26.8006 -83.3900 300° West 237 273 24,000  Level Miami Center
08:29AM 26.8308 -83.4544 298° West 231 266 24,000  Level Miami Center
08:30AM 26.8636 -83.5167 301° West 231 266 24,000  Level Miami Center
08:31AM 26.8939 -83.5789 299° West 231 266 24,000  Level Miami Center
08:32AM 26.9283 -83.6461 300° West 231 266 24,000  Level Miami Center
08:33AM 26.9589 -83.7083 299° West 231 266 24,000  Level Miami Center
08:34AM 26.9933 -83.7733 301° West 231 266 24,000  Level Miami Center
08:35AM 27.0236 -83.8358 299° West 231 266 24,000  Level Miami Center
08:36AM 27.0603 -83.9008 302° West 231 266 24,000  Level Miami Center
08:37AM 27.0903 -83.9656 298° West 231 266 24,000  Level Miami Center
08:38AM 27.1206 -84.0281 299° West 236 272 24,000  Level Miami Center
08:39AM 27.1508 -84.0906 299° West 231 266 24,000  Level Miami Center
08:40AM 27.1853 -84.1556 301° West 231 266 24,000  Level Miami Center
08:41AM 27.2175 -84.2206 299° West 231 266 24,000  Level Miami Center
08:42AM 27.2517 -84.2833 301° West 236 272 24,000  Level Miami Center
08:43AM 27.2819 -84.3461 298° West 231 266 24,000  Level Miami Center
08:45AM 27.3311 -84.4478 299° West 227 261 24,000  Level Jacksonville Center
08:46AM 27.3594 -84.5114 297° West 233 268 24,000  Level Jacksonville Center
08:47AM 27.3922 -84.5750 300° West 228 262 24,000  Level Jacksonville Center
08:48AM 27.4247 -84.6386 300° West 228 262 24,000  Level Jacksonville Center
08:49AM 27.4592 -84.7022 301° West 228 262 24,000  Level Jacksonville Center
08:50AM 27.4875 -84.7658 297° West 235 270 24,000  Level Jacksonville Center
08:51AM 27.5031 -84.8364 284° West 235 270 24,000  Level Jacksonville Center
08:52AM 27.5147 -84.9067 281° West 235 270 24,000  Level Jacksonville Center
08:53AM 27.5303 -84.9772 284° West 230 265 24,000  Level Jacksonville Center
08:54AM 27.5433 -85.0642 280° West 235 270 24,000  Level Jacksonville Center
08:55AM 27.5569 -85.1253 284° West 234 269 24,000  Level Jacksonville Center
08:56AM 27.5681 -85.2025 279° West 240 276 24,000  Level Jacksonville Center
08:57AM 27.5814 -85.2778 281° West 240 276 24,000  Level Jacksonville Center
08:58AM 27.5947 -85.3461 282° West 240 276 24,000  Level Jacksonville Center
08:59AM 27.6142 -85.4192 287° West 235 270 24,000  Level Jacksonville Center
09:00AM 27.6356 -85.4900 289° West 235 270 24,000  Level Jacksonville Center
09:01AM 27.6553 -85.5536 289° West 236 272 24,000  Level Jacksonville Center
09:02AM 27.6767 -85.6269 288° West 241 277 24,000  Level Jacksonville Center
09:03AM 27.6978 -85.7047 287° West 237 273 24,000  Level Jacksonville Center
09:04AM 27.7192 -85.7733 289° West 242 278 24,000  Level Jacksonville Center
09:05AM 27.7406 -85.8489 288° West 254 292 24,000  Level Jacksonville Center
09:06AM 27.7622 -85.9058 293° West 237 273 24,000  Level Jacksonville Center
09:07AM 27.7833 -85.9839 287° West 237 273 24,000  Level Jacksonville Center
09:08AM 27.8025 -86.0478 289° West 237 273 24,000  Level Jacksonville Center
09:09AM 27.8236 -86.1211 288° West 243 280 24,000  Level Jacksonville Center
09:10AM 27.8447 -86.1922 289° West 243 280 24,000  Level Jacksonville Center
09:11AM 27.8639 -86.2561 289° West 237 273 24,000  Level Jacksonville Center
09:12AM 27.8869 -86.3367 288° West 243 280 24,000  Level Jacksonville Center
09:13AM 27.9061 -86.4031 288° West 237 273 24,000  Level Jacksonville Center
09:14AM 27.9269 -86.4742 288° West 242 278 24,000  Level Jacksonville Center
09:15AM 27.9478 -86.5500 287° West 248 285 24,000  Level Jacksonville Center
09:16AM 27.9689 -86.6119 291° West 241 277 24,000  Level Jacksonville Center
09:17AM 27.9878 -86.6808 287° West 236 272 24,000  Level Jacksonville Center
09:18AM 28.0106 -86.7544 289° West 236 272 24,000  Level Jacksonville Center
09:19AM 28.0294 -86.8211 288° West 242 278 24,000  Level Jacksonville Center
09:20AM 28.0522 -86.8972 289° West 240 276 24,000  Level Jacksonville Center
09:21AM 28.0708 -86.9636 288° West 240 276 24,000  Level Jacksonville Center
09:22AM 28.0839 -87.0136 286° West 235 270 24,000  Level Jacksonville Center
09:23AM 28.1222 -87.1211 292° West 258 297 24,000  Level Jacksonville Center
09:24AM 28.1269 -87.1636 277° West 223 257 24,000  Level Jacksonville Center
09:25AM 28.1653 -87.2642 293° West 299 344 24,000  Level Jacksonville Center
09:26AM 28.1722 -87.3114 279° West 239 275 24,000  Level Jacksonville Center
09:27AM 28.1925 -87.3831 288° West 229 264 24,000  Level Jacksonville Center
09:28AM 28.2192 -87.4594 292° West 246 283 24,000  Level Jacksonville Center
09:28AM 28.2233 -87.4811 282° West 236 272 24,000  Level Houston Center
09:29AM 28.2444 -87.5525 289° West 238 274 24,000  Level Houston Center
09:30AM 28.2644 -87.6217 288° West 234 269 24,000  Level Houston Center
09:31AM 28.2889 -87.7072 288° West 236 272 24,000  Level Houston Center
09:33AM 28.3103 -87.7764 289° West 234 269 24,000  Level Houston Center
09:34AM 28.3306 -87.8467 288° West 235 270 24,000  Level Houston Center
09:35AM 28.3503 -87.9172 288° West 235 270 24,000  Level Houston Center
09:36AM 28.3703 -87.9878 288° West 234 269 24,000  Level Houston Center
09:37AM 28.3975 -88.0547 295° West 235 270 24,000  Level Houston Center
09:38AM 28.4450 -88.1144 312° West 238 274 24,000  Level Houston Center
09:39AM 28.4881 -88.1708 311° West 237 273 24,000  Level Houston Center
09:40AM 28.5397 -88.2394 311° West 239 275 24,000  Level Houston Center
09:41AM 28.5822 -88.2961 311° West 236 272 24,000  Level Houston Center
09:42AM 28.6250 -88.3525 311° West 236 272 24,000  Level Houston Center
09:43AM 28.6681 -88.4100 310° West 238 274 24,000  Level Houston Center
09:44AM 28.7094 -88.4672 310° West 236 272 24,000  Level Houston Center
09:45AM 28.7528 -88.5242 311° West 237 273 24,000  Level Houston Center
09:46AM 28.8039 -88.5919 311° West 236 272 24,000  Level Houston Center
09:47AM 28.8453 -88.6492 310° West 234 269 24,000  Level Houston Center
09:48AM 28.8875 -88.7056 311° West 234 269 24,000  Level Houston Center
09:49AM 28.9311 -88.7617 312° West 236 272 24,000  Level Houston Center
09:50AM 28.9722 -88.8169 310° West 230 265 24,000  Level Houston Center
09:51AM 29.0117 -88.8767 307° West 234 269 24,000  Level Houston Center
09:52AM 29.0508 -88.9522 301° West 230 265 24,000  Level Houston Center
09:53AM 29.0839 -89.0136 302° West 228 262 24,000  Level Houston Center
09:54AM 29.1172 -89.0756 302° West 228 262 24,000  Level Houston Center
09:55AM 29.1508 -89.1372 302° West 229 264 24,000  Level Houston Center
09:56AM 29.1842 -89.1989 302° West 228 262 24,000  Level Houston Center
09:57AM 29.2172 -89.2625 301° West 232 267 24,000  Level Houston Center
09:58AM 29.2503 -89.3242 302° West 229 264 24,000  Level Houston Center
09:59AM 29.2889 -89.3992 301° West 230 265 24,000  Level Houston Center
10:00AM 29.3219 -89.4614 301° West 228 262 24,000  Level Houston Center
10:01AM 29.3550 -89.5231 302° West 228 262 24,000  Level Houston Center
10:02AM 29.3881 -89.5878 300° West 232 267 24,000  Level Houston Center
10:04AM 29.4206 -89.6489 301° West 227 261 24,000  Level Houston Center
10:05AM 29.4531 -89.7111 301° West 227 261 24,000  Level Houston Center
10:06AM 29.4928 -89.7850 302° West 227 261 24,000  Level Houston Center
10:07AM 29.5253 -89.8497 300° West 232 267 24,000  Level Houston Center
10:08AM 29.5581 -89.9119 301° West 230 265 24,000  Level Houston Center
10:09AM 29.5914 -89.9733 302° West 227 261 24,000  Level Houston Center
10:10AM 29.6231 -90.0361 300° West 227 261 24,000  Level Houston Center
10:11AM 29.6547 -90.0961 301° West 222 255 24,000  Level Houston Center
10:12AM 29.6939 -90.1711 301° West 226 260 24,000  Level Houston Center
10:13AM 29.7269 -90.2331 302° West 227 261 24,000  Level Houston Center
10:14AM 29.7581 -90.2939 301° West 222 255 24,000  Level Houston Center
10:15AM 29.7900 -90.3567 300° West 226 260 24,000  Level Houston Center
10:16AM 29.8217 -90.4169 301° West 221 254 24,000  Level Houston Center
10:17AM 29.8542 -90.4794 301° West 226 260 24,000  Level Houston Center
10:18AM 29.8917 -90.5533 300° West 224 258 24,000  Level Houston Center
10:19AM 29.9239 -90.6136 302° West 221 254 24,000  Level Houston Center
10:20AM 29.9561 -90.6764 301° West 226 260 24,000  Level Houston Center
10:21AM 29.9872 -90.7383 300° West 223 257 24,000  Level Houston Center
10:22AM 30.0194 -90.8019 300° West 228 262 24,000  Level Houston Center
10:23AM 30.0511 -90.8636 301° West 224 258 24,000  Level Houston Center
10:24AM 30.0897 -90.9392 301° West 228 262 24,000  Level Houston Center
10:25AM 30.1211 -91.0006 301° West 224 258 24,000  Level Houston Center
10:26AM 30.1531 -91.0631 301° West 226 260 24,000  Level Houston Center
10:27AM 30.1850 -91.1258 300° West 227 261 24,000  Level Houston Center
10:28AM 30.2161 -91.1883 300° West 224 258 24,000  Level Houston Center
10:29AM 30.2553 -91.2631 301° West 225 259 24,000  Level Houston Center
10:30AM 30.2875 -91.3258 301° West 227 261 24,000  Level Houston Center
10:31AM 30.3181 -91.3897 299° West 228 262 24,000  Level Houston Center
10:32AM 30.3506 -91.4514 301° West 227 261 24,000  Level Houston Center
10:34AM 30.3814 -91.5136 300° West 225 259 24,000  Level Houston Center
10:35AM 30.4119 -91.5772 299° West 226 260 24,000  Level Houston Center
10:36AM 30.4500 -91.6522 300° West 225 259 24,000  Level Houston Center
10:37AM 30.4789 -91.7097 300° West 226 260 24,000  Level Houston Center
10:38AM 30.5111 -91.7714 301° West 224 258 24,000  Level Houston Center
10:39AM 30.5475 -91.8475 299° West 225 259 24,000  Level Houston Center
10:40AM 30.5797 -91.9114 300° West 228 262 24,000 -240 Level Houston Center
10:41AM 30.6114 -91.9747 300° West 228 262 23,600 -480 Descending Houston Center
10:42AM 30.6456 -92.0425 300° West 240 276 23,100 -480 Descending Houston Center
10:43AM 30.6789 -92.1108 300° West 243 280 22,600 -540 Descending Houston Center
10:44AM 30.7136 -92.1786 301° West 243 280 22,100 -540 Descending Houston Center
10:45AM 30.7539 -92.2619 299° West 245 282 21,500 -540 Descending Houston Center
10:46AM 30.7881 -92.3314 300° West 247 284 21,000 -480 Descending Houston Center
10:47AM 30.8222 -92.4000 300° West 246 283 20,500 -480 Descending Houston Center
10:48AM 30.8564 -92.4689 300° West 246 283 20,000 -300 Descending Houston Center
10:49AM 30.8894 -92.5372 299° West 244 281 20,000  Level Houston Center
10:50AM 30.9214 -92.6031 300° West 238 274 20,000  Level Houston Center
10:51AM 30.9544 -92.6847 295° West 234 269 20,000  Level Houston Center
10:52AM 30.9792 -92.7542 293° West 232 267 20,000  Level Houston Center
10:53AM 31.0047 -92.8233 293° West 231 266 20,000  Level Houston Center
10:54AM 31.0303 -92.8928 293° West 232 267 20,000  Level Houston Center
10:55AM 31.0553 -92.9622 293° West 231 266 20,000  Level Houston Center
10:56AM 31.0808 -93.0325 293° West 233 268 20,000  Level Houston Center
10:57AM 31.1067 -93.1025 293° West 234 269 20,000  Level Houston Center
10:58AM 31.1372 -93.1869 293° West 235 270 20,000  Level Houston Center
10:59AM 31.1617 -93.2558 293° West 231 266 20,000  Level Houston Center
11:00AM 31.1853 -93.3211 293° West 233 268 20,000  Level Houston Center
11:02AM 31.2100 -93.3914 292° West 234 269 20,000  Level Houston Center
11:03AM 31.2406 -93.4753 293° West 235 270 20,000  Level Houston Center
11:04AM 31.2633 -93.5364 294° West 235 270 20,000  Level Houston Center
11:05AM 31.2922 -93.6203 292° West 236 272 20,000  Level Houston Center
11:06AM 31.3178 -93.6908 293° West 235 270 20,000  Level Houston Center
11:07AM 31.3431 -93.7611 293° West 235 270 20,000  Level Houston Center
11:08AM 31.3681 -93.8325 292° West 237 273 20,000  Level Houston Center
11:09AM 31.3981 -93.9164 293° West 234 269 20,000  Level Houston Center
11:10AM 31.4231 -93.9872 292° West 235 270 20,000  Level Houston Center
11:11AM 31.4478 -94.0586 292° West 236 272 20,000  Level Houston Center
11:12AM 31.4733 -94.1289 293° West 235 270 20,000  Level Houston Center
11:13AM 31.4981 -94.1994 292° West 236 272 20,000  Level Houston Center
11:14AM 31.5231 -94.2708 292° West 235 270 20,000  Level Houston Center
11:15AM 31.5522 -94.3553 292° West 234 269 20,000  Level Houston Center
11:16AM 31.5778 -94.4269 293° West 238 274 20,000  Level Houston Center
11:17AM 31.6092 -94.4931 299° West 235 270 20,000  Level Houston Center
11:18AM 31.6444 -94.5567 303° West 234 269 20,000  Level Houston Center
11:19AM 31.6786 -94.6217 302° West 235 270 20,000  Level Houston Center
11:20AM 31.7192 -94.7003 301° West 234 269 20,000  Level Houston Center
11:21AM 31.7544 -94.7661 302° West 238 274 20,000  Level Houston Center
11:23AM 31.8108 -94.8708 302° West 236 272 20,000  Level Fort Worth Center
11:24AM 31.8447 -94.9364 301° West 236 272 20,000  Level Fort Worth Center
11:25AM 31.8786 -95.0025 301° West 236 272 20,000  Level Fort Worth Center
11:26AM 31.9136 -95.0675 302° West 236 272 20,000  Level Fort Worth Center
11:27AM 31.9469 -95.1319 301° West 233 268 20,000  Level Fort Worth Center
11:28AM 31.9808 -95.1958 302° West 231 266 20,000 -360 Level Fort Worth Center
11:29AM 32.0233 -95.2767 302° West 238 274 19,300 -720 Descending Fort Worth Center
11:30AM 32.0592 -95.3458 301° West 246 283 18,600 -780 Descending Fort Worth Center
11:31AM 32.0958 -95.4153 302° West 248 285 17,800 -720 Descending Fort Worth Center
11:32AM 32.1319 -95.4839 302° West 247 284 17,200 -780 Descending Fort Worth Center
11:33AM 32.1672 -95.5564 300° West 251 289 16,200 -1,080 Descending Fort Worth Center
11:34AM 32.2100 -95.6392 301° West 254 292 15,000 -1,080 Descending Fort Worth Center
11:35AM 32.2447 -95.7117 300° West 253 291 14,000 -1,020 Descending Fort Worth Center
11:36AM 32.2822 -95.7814 302° West 251 289 13,000 -1,020 Descending Fort Worth Center
11:37AM 32.3183 -95.8525 301° West 251 289 12,000 -1,020 Descending Fort Worth Center
11:38AM 32.3614 -95.9331 302° West 260 299 10,900 -1,020 Descending Fort Worth Center
11:39AM 32.4017 -96.0139 301° West 264 304 9,900 -1,200 Descending Fort Worth Center
11:40AM 32.4397 -96.0869 302° West 263 303 8,500 -1,440 Descending Fort Worth Center
11:41AM 32.4797 -96.1664 301° West 262 302 6,900 -1,200 Descending Fort Worth Center
11:42AM 32.5164 -96.2411 300° West 261 300 6,000 -480 Descending Fort Worth Center
11:43AM 32.5550 -96.3161 301° West 249 287 6,000 -540 Level Fort Worth Center
11:44AM 32.6006 -96.3725 314° West 237 273 4,900 -1,020 Descending Fort Worth Center
11:46AM 32.6489 -96.4228 319° Northwest 217 250 3,900 -1,020 Descending Fort Worth Center
11:47AM 32.6908 -96.4681 318° Northwest 203 234 2,900 -960 Descending Fort Worth Center
11:48AM 32.7339 -96.4961 331° Northwest 167 192 2,000 -540 Descending Fort Worth Center
11:49AM 32.7750 -96.5000 355° North 149 171 1,800 -420 Descending Fort Worth Center
11:50AM 32.7833 -96.5283 289° West 115 132 1,200 -600 Descending Fort Worth Center
11:51AM 32.7575 -96.5297 183° South 100 115 600 -600 Descending Fort Worth Center